Historique des mesures à Cassis (13260), France
Quotidien Résumé Fevrier 1, 2018 Unités:  Métrique/US    US   Métrique
« Précédent (Jour)
Suivant (Jour) »
Quotidien Hebdomadaire Mensuel Annuel Période au choix
  Maximum: Minimum: Moyenne:
Température: TemperatureC °F /  -17.8 °C 8.4 °F /  -13.1 °C 9.7 °F /  -12.4 °C
Point de rosée: DewpointC °F /  -17.8 °C 2.4 °F /  -16.4 °C 6 °F /  -14.4 °C
Humidité: Humidity % 66 % 74 %
Vitesse du vent: WindSpeedKMH mph /  0 km/h - 5.5 mph /  8.9 km/h
Rafales: WindSpeedGustKMH mph /  0 km/h - -
Vent:- - SW
Pression: PressurehPa in /  0 hPa 1000.6 in /  33880.3 hPa -
Précipitations: 0.5 in /  12.7 mm    
Historical Graphs
 
 
Mesures pour : Fevrier 1, 2018
Heure Temperature Point de rosée Pression Vent Vitesse du vent Rafales Humidité Pluie (par heure) Conditions
TemperatureC °F /  -17.8 °C DewpointC °F /  -17.8 °C PressurehPa in /  0 hPa Calm     Humidity % HourlyPrecipMM in /  0 mm SoftwareType W/m2
00:12 10.8 °F /  -11.8 °C 6.6 °F /  -14.1 °C 1012.4 in /  34279.9 hPa Calm     75 % 0.0 in /  0 mm open2300-1.11 W/m2
01:12 11.2 °F /  -11.6 °C 7.1 °F /  -13.8 °C 1011.4 in /  34246 hPa Calm     76 % 0.0 in /  0 mm open2300-1.11 W/m2
02:12 11.5 °F /  -11.4 °C 8.2 °F /  -13.2 °C 1010.4 in /  34212.1 hPa WSW 2.9 mph /  4.7 km/h 6.8 mph /  10.9 km/h 80 % 0.0 in /  0 mm open2300-1.11 W/m2
03:12 11.8 °F /  -11.2 °C 8.8 °F /  -12.9 °C 1009.4 in /  34178.3 hPa Calm   4.0 mph /  6.4 km/h 82 % 0.0 in /  0 mm open2300-1.11 W/m2
04:12 11.6 °F /  -11.3 °C 8.6 °F /  -13 °C 1008.7 in /  34154.6 hPa WSW 7.6 mph /  12.2 km/h 11.9 mph /  19.2 km/h 82 % 0.0 in /  0 mm open2300-1.11 W/m2
05:12 10.9 °F /  -11.7 °C 7.6 °F /  -13.6 °C 1007.3 in /  34107.2 hPa West 8.7 mph /  14 km/h 8.7 mph /  14 km/h 80 % 0.0 in /  0 mm open2300-1.11 W/m2
06:12 10.3 °F /  -12.1 °C 7.2 °F /  -13.8 °C 1007.3 in /  34107.2 hPa West 7.2 mph /  11.6 km/h 10.8 mph /  17.4 km/h 81 % 0.0 in /  0 mm open2300-1.11 W/m2
07:12 10.2 °F /  -12.1 °C 6.9 °F /  -13.9 °C 1006.7 in /  34086.9 hPa WNW 8.7 mph /  14 km/h 9.3 mph /  15 km/h 80 % 0.0 in /  0 mm open2300-1.11 W/m2
08:12 10.3 °F /  -12.1 °C 6.8 °F /  -14 °C 1006.0 in /  34063.2 hPa WNW 5.5 mph /  8.9 km/h 5.5 mph /  8.9 km/h 79 % 0.0 in /  0 mm open2300-1.11 W/m2
10:12 10.4 °F /  -12 °C 7.3 °F /  -13.7 °C 1005.6 in /  34049.6 hPa Calm     81 % 0.0 in /  0 mm open2300-1.11 W/m2
11:12 10.1 °F /  -12.2 °C 6.9 °F /  -13.9 °C 1005.6 in /  34049.6 hPa WNW 7.9 mph /  12.7 km/h 7.9 mph /  12.7 km/h 81 % 0.5 in /  12.7 mm open2300-1.11 W/m2
12:12 10.1 °F /  -12.2 °C 6.9 °F /  -13.9 °C 1005.0 in /  34029.3 hPa North 1.8 mph /  2.9 km/h 7.6 mph /  12.2 km/h 81 % 0.0 in /  0 mm open2300-1.11 W/m2
13:12 10.5 °F /  -11.9 °C 7.2 °F /  -13.8 °C 1003.9 in /  33992.1 hPa Calm     80 % 0.0 in /  0 mm open2300-1.11 W/m2
14:12 10.4 °F /  -12 °C 6.9 °F /  -13.9 °C 1002.9 in /  33958.2 hPa NW 5.8 mph /  9.3 km/h 15.4 mph /  24.8 km/h 79 % 0.0 in /  0 mm open2300-1.11 W/m2
15:12 10.3 °F /  -12.1 °C 6.6 °F /  -14.1 °C 1002.6 in /  33948 hPa WNW 7.9 mph /  12.7 km/h 9.0 mph /  14.5 km/h 78 % 0.0 in /  0 mm open2300-1.11 W/m2
16:12 9.7 °F /  -12.4 °C 6.2 °F /  -14.3 °C 1001.9 in /  33924.3 hPa West 5.8 mph /  9.3 km/h 10.5 mph /  16.9 km/h 79 % 0.0 in /  0 mm open2300-1.11 W/m2
17:12 9.6 °F /  -12.4 °C 5.9 °F /  -14.5 °C 1001.2 in /  33900.6 hPa WNW 4.7 mph /  7.6 km/h 8.7 mph /  14 km/h 78 % 0.0 in /  0 mm open2300-1.11 W/m2
18:12 9.2 °F /  -12.7 °C 5.1 °F /  -14.9 °C 1001.6 in /  33914.2 hPa North 4.7 mph /  7.6 km/h 10.1 mph /  16.3 km/h 76 % 0.0 in /  0 mm open2300-1.11 W/m2
19:12 9.1 °F /  -12.7 °C 4.8 °F /  -15.1 °C 1001.6 in /  33914.2 hPa West 12.6 mph /  20.3 km/h 13.0 mph /  20.9 km/h 75 % 0.0 in /  0 mm open2300-1.11 W/m2
20:12 8.9 °F /  -12.8 °C 4.4 °F /  -15.3 °C 1001.2 in /  33900.6 hPa WNW 15.8 mph /  25.4 km/h 15.8 mph /  25.4 km/h 74 % 0.0 in /  0 mm open2300-1.11 W/m2
21:12 8.7 °F /  -12.9 °C 3.9 °F /  -15.6 °C 1001.2 in /  33900.6 hPa North 10.1 mph /  16.3 km/h 24.5 mph /  39.4 km/h 72 % 0.0 in /  0 mm open2300-1.11 W/m2
22:12 8.5 °F /  -13.1 °C 2.5 °F /  -16.4 °C 1000.9 in /  33890.5 hPa NNE 8.2 mph /  13.2 km/h 14.3 mph /  23 km/h 66 % 0.0 in /  0 mm open2300-1.11 W/m2
23:12 8.4 °F /  -13.1 °C 2.4 °F /  -16.4 °C 1000.6 in /  33880.3 hPa West 6.8 mph /  10.9 km/h 6.8 mph /  10.9 km/h 66 % 0.0 in /  0 mm open2300-1.11 W/m2
Observations météo à CASSIS
WU-History script by Weather Underground - 1 mb